createdAt,value
2022-08-08T00:01:12.907Z,54.98
2022-08-08T00:03:54.254Z,55.08
2022-08-08T00:06:28.492Z,55.29
2022-08-08T00:09:15.959Z,54.98
2022-08-08T00:12:09.374Z,55.02
2022-08-08T00:14:59.626Z,54.90
2022-08-08T00:17:58.286Z,54.86
2022-08-08T00:20:41.155Z,54.91
2022-08-08T00:23:14.738Z,55.09
2022-08-08T00:25:51.135Z,54.88
2022-08-08T00:28:35.110Z,54.96
2022-08-08T00:32:21.106Z,55.57
2022-08-08T00:34:40.786Z,55.42
2022-08-08T00:37:48.015Z,55.52
2022-08-08T00:41:09.555Z,55.29
2022-08-08T00:43:40.816Z,55.05
2022-08-08T00:46:25.891Z,54.99
2022-08-08T00:49:23.749Z,54.71
2022-08-08T00:52:03.091Z,54.44
2022-08-08T00:54:54.971Z,54.78
2022-08-08T00:58:04.924Z,54.99
2022-08-08T01:00:58.793Z,55.41
2022-08-08T01:04:02.481Z,54.75
2022-08-08T01:06:49.873Z,54.97
2022-08-08T01:09:41.377Z,54.93
2022-08-08T01:12:31.188Z,55.34
2022-08-08T01:15:43.426Z,54.88
2022-08-08T01:18:53.207Z,54.85
2022-08-08T01:22:09.779Z,54.80
2022-08-08T01:24:40.688Z,54.56
2022-08-08T01:27:44.354Z,54.88
2022-08-08T01:30:44.282Z,54.86
2022-08-08T01:33:54.187Z,56.49
2022-08-08T01:37:01.807Z,57.11
2022-08-08T01:39:42.419Z,56.68
2022-08-08T01:42:35.316Z,56.96
2022-08-08T01:45:13.865Z,56.65
2022-08-08T01:48:30.756Z,56.48
2022-08-08T01:51:31.882Z,55.72
2022-08-08T01:55:25.939Z,56.49
2022-08-08T01:58:10.623Z,56.56
2022-08-08T02:00:37.422Z,56.44
2022-08-08T02:03:57.897Z,56.22
2022-08-08T02:06:05.904Z,56.26
2022-08-08T02:08:38.806Z,56.24
2022-08-08T02:11:22.988Z,56.29
2022-08-08T02:14:23.571Z,55.92
2022-08-08T02:17:10.706Z,56.04
2022-08-08T02:20:09.394Z,56.24
2022-08-08T02:22:52.690Z,56.33
2022-08-08T02:25:47.356Z,56.14
2022-08-08T02:28:35.420Z,56.15
2022-08-08T02:31:59.533Z,56.19
2022-08-08T02:34:37.724Z,56.15
2022-08-08T02:37:52.044Z,56.66
2022-08-08T02:40:19.470Z,56.53
2022-08-08T02:44:42.690Z,56.24
2022-08-08T02:46:44.998Z,56.46
2022-08-08T02:49:50.803Z,56.39
2022-08-08T02:52:40.155Z,56.29
2022-08-08T02:55:39.400Z,56.24
2022-08-08T02:58:31.059Z,56.30
2022-08-08T03:01:23.496Z,56.22
2022-08-08T03:05:04.275Z,55.22
2022-08-08T03:07:07.234Z,55.58
2022-08-08T03:09:49.648Z,54.87
2022-08-08T03:13:01.644Z,55.49
2022-08-08T03:16:07.437Z,55.65
2022-08-08T03:18:39.260Z,56.12
2022-08-08T03:21:10.110Z,55.56
2022-08-08T03:23:54.781Z,55.47
2022-08-08T03:26:31.068Z,55.54
2022-08-08T03:29:15.004Z,55.64
2022-08-08T03:32:08.523Z,55.65
2022-08-08T03:34:37.751Z,55.36
2022-08-08T03:38:00.031Z,55.51
2022-08-08T03:40:05.407Z,55.61
2022-08-08T03:42:32.839Z,55.59
2022-08-08T03:44:59.684Z,55.51
2022-08-08T03:47:45.468Z,55.38
2022-08-08T03:50:24.786Z,54.78
2022-08-08T03:52:54.597Z,54.95
2022-08-08T03:55:56.255Z,54.87
2022-08-08T03:58:35.218Z,54.75
2022-08-08T04:01:02.262Z,54.59
2022-08-08T04:03:57.283Z,54.47
2022-08-08T04:06:29.983Z,53.99
2022-08-08T04:09:10.880Z,54.24
2022-08-08T04:11:58.340Z,54.03
2022-08-08T04:14:34.806Z,53.90
2022-08-08T04:17:04.280Z,53.87
2022-08-08T04:19:36.568Z,53.74
2022-08-08T04:22:04.542Z,53.53
2022-08-08T04:24:31.930Z,53.32
2022-08-08T04:26:59.829Z,53.08
2022-08-08T04:29:33.266Z,52.80
2022-08-08T04:32:06.798Z,52.54
2022-08-08T04:34:42.980Z,52.05
2022-08-08T04:37:21.191Z,52.00
2022-08-08T04:40:04.933Z,51.90
2022-08-08T04:42:36.762Z,51.12
2022-08-08T04:45:05.323Z,50.52
2022-08-08T04:47:32.336Z,50.49
2022-08-08T04:50:06.254Z,49.97
2022-08-08T04:52:34.338Z,49.07
2022-08-08T04:55:02.655Z,47.95
2022-08-08T04:57:32.002Z,48.10
2022-08-08T05:00:02.594Z,49.20
2022-08-08T05:02:31.115Z,48.91
2022-08-08T05:04:59.819Z,49.18
2022-08-08T05:07:38.097Z,48.73
2022-08-08T05:10:12.691Z,48.24
2022-08-08T05:12:53.598Z,47.76
2022-08-08T05:16:47.785Z,47.74
2022-08-08T05:18:15.286Z,48.47
2022-08-08T05:20:49.797Z,48.67
2022-08-08T05:23:17.800Z,48.60
2022-08-08T05:25:44.666Z,48.55
2022-08-08T05:28:14.794Z,47.92
2022-08-08T05:30:47.211Z,48.69
2022-08-08T05:33:16.871Z,48.74
2022-08-08T05:35:46.046Z,48.92
2022-08-08T05:38:31.746Z,48.76
2022-08-08T05:40:59.605Z,48.79
2022-08-08T05:43:39.403Z,48.95
2022-08-08T05:46:13.366Z,48.45
2022-08-08T05:48:44.299Z,48.65
2022-08-08T05:51:20.005Z,48.85
2022-08-08T05:54:24.715Z,48.62
2022-08-08T05:56:42.325Z,48.46
2022-08-08T05:59:58.711Z,48.55
2022-08-08T06:02:43.253Z,47.79
2022-08-08T06:05:34.121Z,47.70
2022-08-08T06:08:10.268Z,47.37
2022-08-08T06:10:50.768Z,47.31
2022-08-08T06:13:22.611Z,46.89
2022-08-08T06:15:53.921Z,46.58
2022-08-08T06:18:25.579Z,45.61
2022-08-08T06:20:57.037Z,45.70
2022-08-08T06:23:32.701Z,45.82
2022-08-08T06:26:39.131Z,45.36
2022-08-08T06:29:18.743Z,44.50
2022-08-08T06:32:10.778Z,43.99
2022-08-08T06:34:52.623Z,43.27
2022-08-08T06:37:37.981Z,42.81
2022-08-08T06:40:10.490Z,41.33
2022-08-08T06:42:53.800Z,41.51
2022-08-08T06:45:23.029Z,40.42
2022-08-08T06:47:58.077Z,41.10
2022-08-08T06:50:31.572Z,40.74
2022-08-08T06:53:13.833Z,40.30
2022-08-08T06:55:47.271Z,39.71
2022-08-08T06:58:30.740Z,39.36
2022-08-08T07:01:52.572Z,38.96
2022-08-08T07:04:41.629Z,38.67
2022-08-08T07:06:57.591Z,38.15
2022-08-08T07:09:45.747Z,38.47
2022-08-08T07:12:41.172Z,37.83
2022-08-08T07:15:32.438Z,36.82
2022-08-08T07:18:35.570Z,36.65
2022-08-08T07:20:54.809Z,37.02
2022-08-08T07:23:23.737Z,36.69
2022-08-08T07:25:54.749Z,36.38
2022-08-08T07:28:24.128Z,36.54
2022-08-08T07:30:59.588Z,36.31
2022-08-08T07:33:27.545Z,36.53
2022-08-08T07:36:08.142Z,36.43
2022-08-08T07:38:38.192Z,37.31
2022-08-08T07:41:23.452Z,37.43
2022-08-08T07:43:53.655Z,38.06
2022-08-08T07:46:29.087Z,38.30
2022-08-08T07:48:57.854Z,37.33
2022-08-08T07:51:44.662Z,37.94
2022-08-08T07:54:24.056Z,36.87
2022-08-08T07:57:12.135Z,38.65
2022-08-08T08:00:02.025Z,39.64
2022-08-08T08:02:39.506Z,39.00
2022-08-08T08:05:21.927Z,38.56
2022-08-08T08:08:04.410Z,38.53
2022-08-08T08:10:33.130Z,37.84
2022-08-08T08:13:25.808Z,38.64
2022-08-08T08:16:17.089Z,38.75
2022-08-08T08:18:52.112Z,38.42
2022-08-08T08:21:44.081Z,38.20
2022-08-08T08:24:14.738Z,38.00
2022-08-08T08:26:47.052Z,39.01
2022-08-08T08:29:22.182Z,38.88
2022-08-08T08:31:57.401Z,37.98
2022-08-08T08:34:32.601Z,38.61
2022-08-08T08:37:08.367Z,38.17
2022-08-08T08:39:59.720Z,38.58
2022-08-08T08:42:32.113Z,38.49
2022-08-08T08:45:21.299Z,38.57
2022-08-08T08:47:54.584Z,38.80
2022-08-08T08:50:31.798Z,38.71
2022-08-08T08:53:27.702Z,39.11
2022-08-08T08:55:55.950Z,37.97
2022-08-08T08:58:42.223Z,37.26
2022-08-08T09:01:15.166Z,37.84
2022-08-08T09:03:50.334Z,37.47
2022-08-08T09:06:28.252Z,37.15
2022-08-08T09:09:19.292Z,36.75
2022-08-08T09:12:07.942Z,36.29
2022-08-08T09:14:42.758Z,35.30
2022-08-08T09:17:18.249Z,35.38
2022-08-08T09:21:57.827Z,34.66
2022-08-08T09:22:35.701Z,34.18
2022-08-08T09:25:04.046Z,34.44
2022-08-08T09:27:56.215Z,34.12
2022-08-08T09:30:22.103Z,33.64
2022-08-08T09:33:12.525Z,33.36
2022-08-08T09:35:49.813Z,33.73
2022-08-08T09:38:54.389Z,33.81
2022-08-08T09:42:14.582Z,34.19
2022-08-08T09:44:46.891Z,34.97
2022-08-08T09:48:02.198Z,34.65
2022-08-08T09:50:13.786Z,34.01
2022-08-08T09:52:56.783Z,34.00
2022-08-08T09:56:02.819Z,35.67
2022-08-08T09:58:25.676Z,34.89
2022-08-08T10:00:57.490Z,36.32
2022-08-08T10:03:31.818Z,36.21
2022-08-08T10:05:59.555Z,35.72
2022-08-08T10:08:30.603Z,35.33
2022-08-08T10:11:00.946Z,34.46
2022-08-08T10:13:35.818Z,34.99
2022-08-08T10:16:05.929Z,34.30
2022-08-08T10:18:35.244Z,34.46
2022-08-08T10:21:08.355Z,34.28
2022-08-08T10:23:58.625Z,35.02
2022-08-08T10:26:57.048Z,34.50
2022-08-08T10:29:38.387Z,34.61
2022-08-08T10:32:35.718Z,35.36
2022-08-08T10:36:01.933Z,34.77
2022-08-08T10:38:07.904Z,34.65
2022-08-08T10:40:38.599Z,34.51
2022-08-08T10:43:06.482Z,34.72
2022-08-08T10:45:55.581Z,34.40
2022-08-08T10:48:37.371Z,34.87
2022-08-08T10:51:21.900Z,34.70
2022-08-08T10:53:58.260Z,34.89
2022-08-08T10:56:32.549Z,34.41
2022-08-08T10:59:08.127Z,35.55
2022-08-08T11:01:38.177Z,36.03
2022-08-08T11:04:10.648Z,36.62
2022-08-08T11:06:41.730Z,36.51
2022-08-08T11:09:19.358Z,37.02
2022-08-08T11:12:04.625Z,36.18
2022-08-08T11:14:33.555Z,36.35
2022-08-08T11:17:03.923Z,36.84
2022-08-08T11:19:33.334Z,36.95
2022-08-08T11:22:00.839Z,37.99
2022-08-08T11:24:33.500Z,38.78
2022-08-08T11:27:19.529Z,42.85
2022-08-08T11:30:04.323Z,44.27
2022-08-08T11:32:42.700Z,49.10
2022-08-08T11:35:27.610Z,51.52
2022-08-08T11:38:39.389Z,52.95
2022-08-08T11:40:52.421Z,56.41
2022-08-08T11:43:21.750Z,57.16
2022-08-08T11:46:14.070Z,60.75
2022-08-08T11:48:39.288Z,61.95
2022-08-08T11:51:30.162Z,62.18
2022-08-08T11:53:59.327Z,61.86
2022-08-08T11:56:34.642Z,64.37
2022-08-08T11:59:11.945Z,64.64
2022-08-08T12:01:39.284Z,66.89
2022-08-08T12:04:08.508Z,67.18
2022-08-08T12:06:35.869Z,69.07
2022-08-08T12:09:08.034Z,66.89
2022-08-08T12:11:39.707Z,66.54
2022-08-08T12:14:07.599Z,69.83
2022-08-08T12:20:14.618Z,71.90
2022-08-08T12:22:53.164Z,72.68
2022-08-08T12:25:29.816Z,75.38
2022-08-08T12:28:15.490Z,73.42
2022-08-08T12:30:47.766Z,75.61
2022-08-08T12:33:37.614Z,73.97
2022-08-08T12:36:13.370Z,77.37
2022-08-08T12:38:51.306Z,75.56
2022-08-08T12:41:35.144Z,76.58
2022-08-08T12:44:13.253Z,76.45
2022-08-08T12:46:40.095Z,75.73
2022-08-08T12:49:40.203Z,75.13
2022-08-08T12:52:00.527Z,74.69
2022-08-08T12:54:35.687Z,74.43
2022-08-08T12:57:23.419Z,74.33
2022-08-08T13:00:05.906Z,76.26
2022-08-08T13:02:42.245Z,76.55
2022-08-08T13:05:26.379Z,77.69
2022-08-08T13:08:18.948Z,78.46
2022-08-08T13:10:58.302Z,78.96
2022-08-08T13:13:37.536Z,80.39
2022-08-08T13:16:21.352Z,79.46
2022-08-08T13:18:56.898Z,80.28
2022-08-08T13:21:36.373Z,80.35
2022-08-08T13:24:18.559Z,80.00
2022-08-08T13:27:04.826Z,79.41
2022-08-08T13:29:37.888Z,79.43
2022-08-08T13:32:07.945Z,78.25
2022-08-08T13:34:39.991Z,78.97
2022-08-08T13:37:10.966Z,76.93
2022-08-08T13:39:54.618Z,76.48
2022-08-08T13:42:23.389Z,75.53
2022-08-08T13:44:58.792Z,72.93
2022-08-08T13:47:26.301Z,73.50
2022-08-08T13:50:38.866Z,73.58
2022-08-08T13:52:48.201Z,73.75
2022-08-08T13:55:29.635Z,72.00
2022-08-08T13:58:07.722Z,71.76
2022-08-08T14:00:40.498Z,71.83
2022-08-08T14:03:52.622Z,70.66
2022-08-08T14:06:32.226Z,69.50
2022-08-08T14:08:58.433Z,69.29
2022-08-08T14:11:29.450Z,68.02
2022-08-08T14:13:59.912Z,68.10
2022-08-08T14:16:28.004Z,68.05
2022-08-08T14:18:57.845Z,67.69
2022-08-08T14:21:48.948Z,67.04
2022-08-08T14:24:33.260Z,64.99
2022-08-08T14:27:01.901Z,65.73
2022-08-08T14:29:39.484Z,66.43
2022-08-08T14:32:12.581Z,65.25
2022-08-08T14:34:43.577Z,64.42
2022-08-08T14:37:16.733Z,63.91
2022-08-08T14:39:49.778Z,64.08
2022-08-08T14:42:26.758Z,65.04
2022-08-08T14:45:00.282Z,64.01
2022-08-08T14:47:27.554Z,64.07
2022-08-08T14:50:15.273Z,65.49
2022-08-08T14:53:13.570Z,65.25
2022-08-08T14:55:43.294Z,64.67
2022-08-08T14:58:11.719Z,64.08
2022-08-08T15:00:43.339Z,63.87
2022-08-08T15:03:15.659Z,63.20
2022-08-08T15:05:54.383Z,63.00
2022-08-08T15:08:34.607Z,62.29
2022-08-08T15:11:11.125Z,61.24
2022-08-08T15:14:00.451Z,61.98
2022-08-08T15:16:27.881Z,61.15
2022-08-08T15:18:55.579Z,61.18
2022-08-08T15:21:22.472Z,60.20
2022-08-08T15:23:54.490Z,60.36
2022-08-08T15:26:21.456Z,61.47
2022-08-08T15:28:53.297Z,61.53
2022-08-08T15:31:49.046Z,62.49
2022-08-08T15:34:28.959Z,62.75
2022-08-08T15:37:02.214Z,62.27
2022-08-08T15:39:37.976Z,63.94
2022-08-08T15:42:10.558Z,63.99
2022-08-08T15:44:42.250Z,63.54
2022-08-08T15:47:16.117Z,63.41
2022-08-08T15:49:48.641Z,64.35
2022-08-08T15:52:17.252Z,65.33
2022-08-08T15:54:47.670Z,64.95
2022-08-08T15:57:15.507Z,65.53
2022-08-08T16:00:06.567Z,64.95
2022-08-08T16:02:32.310Z,64.17
2022-08-08T16:05:00.666Z,64.03
2022-08-08T16:07:39.169Z,64.48
2022-08-08T16:13:11.270Z,63.99
2022-08-08T16:13:45.305Z,63.82
2022-08-08T16:15:58.049Z,63.44
2022-08-08T16:18:27.994Z,64.97
2022-08-08T16:21:00.478Z,64.50
2022-08-08T16:23:32.507Z,64.75
2022-08-08T16:26:12.680Z,63.71
2022-08-08T16:28:41.500Z,63.54
2022-08-08T16:31:09.462Z,63.86
2022-08-08T16:33:39.423Z,63.99
2022-08-08T16:36:15.752Z,64.05
2022-08-08T16:38:47.629Z,64.35
2022-08-08T16:41:22.570Z,64.92
2022-08-08T16:43:51.168Z,65.19
2022-08-08T16:46:36.257Z,64.18
2022-08-08T16:49:07.760Z,64.22
2022-08-08T16:55:03.618Z,64.52
2022-08-08T16:55:18.050Z,64.04
2022-08-08T16:57:43.534Z,65.39
2022-08-08T17:00:06.275Z,64.38
2022-08-08T17:02:39.533Z,64.47
2022-08-08T17:05:08.521Z,64.66
2022-08-08T17:07:37.857Z,64.46
2022-08-08T17:10:09.624Z,65.29
2022-08-08T17:12:37.378Z,66.28
2022-08-08T17:15:18.012Z,67.48
2022-08-08T17:18:02.633Z,67.41
2022-08-08T17:20:39.745Z,67.39
2022-08-08T17:23:18.270Z,67.76
2022-08-08T17:25:55.007Z,67.34
2022-08-08T17:28:34.115Z,67.09
2022-08-08T17:31:39.454Z,67.37
2022-08-08T17:34:35.289Z,68.57
2022-08-08T17:37:00.837Z,69.09
2022-08-08T17:40:04.335Z,69.38
2022-08-08T17:42:20.995Z,68.49
2022-08-08T17:44:51.019Z,68.51
2022-08-08T17:47:27.723Z,68.62
2022-08-08T17:50:01.389Z,68.08
2022-08-08T17:52:35.389Z,68.29
2022-08-08T17:56:03.535Z,68.79
2022-08-08T17:57:53.749Z,69.01
2022-08-08T18:00:25.912Z,69.55
2022-08-08T18:03:08.537Z,70.37
2022-08-08T18:05:48.224Z,70.79
2022-08-08T18:08:25.131Z,71.56
2022-08-08T18:11:15.233Z,72.46
2022-08-08T18:13:46.456Z,71.91
2022-08-08T18:16:20.423Z,71.56
2022-08-08T18:18:52.813Z,72.46
2022-08-08T18:21:35.336Z,73.09
2022-08-08T18:24:19.694Z,73.26
2022-08-08T18:26:54.584Z,73.59
2022-08-08T18:29:33.502Z,73.45
2022-08-08T18:32:06.569Z,73.18
2022-08-08T18:34:34.941Z,73.08
2022-08-08T18:37:06.646Z,73.28
2022-08-08T18:39:36.980Z,73.13
2022-08-08T18:42:06.698Z,73.23
2022-08-08T18:44:41.922Z,72.76
2022-08-08T18:47:08.918Z,72.76
2022-08-08T18:49:40.971Z,72.33
2022-08-08T18:52:24.079Z,72.52
2022-08-08T18:54:59.550Z,72.00
2022-08-08T18:57:41.439Z,71.87
2022-08-08T19:00:16.659Z,71.86
2022-08-08T19:02:55.632Z,72.10
2022-08-08T19:05:32.375Z,73.01
2022-08-08T19:08:24.732Z,73.10
2022-08-08T19:11:01.219Z,73.38
2022-08-08T19:13:52.860Z,73.04
2022-08-08T19:16:19.393Z,73.55
2022-08-08T19:19:00.514Z,73.70
2022-08-08T19:21:33.407Z,73.32
2022-08-08T19:24:34.131Z,72.43
2022-08-08T19:27:02.586Z,73.17
2022-08-08T19:29:31.111Z,73.95
2022-08-08T19:32:01.078Z,73.55
2022-08-08T19:34:35.575Z,73.32
2022-08-08T19:37:05.703Z,72.93
2022-08-08T19:39:35.397Z,73.12
2022-08-08T19:42:04.634Z,72.76
2022-08-08T19:44:43.194Z,72.39
2022-08-08T19:47:14.320Z,72.20
2022-08-08T19:49:43.335Z,72.28
2022-08-08T19:52:34.822Z,72.83
2022-08-08T19:55:11.110Z,74.27
2022-08-08T19:57:43.496Z,75.63
2022-08-08T20:00:29.879Z,76.13
2022-08-08T20:02:57.895Z,76.00
2022-08-08T20:06:14.742Z,76.94
2022-08-08T20:08:30.196Z,76.44
2022-08-08T20:11:00.294Z,76.35
2022-08-08T20:14:31.275Z,76.81
2022-08-08T20:16:14.263Z,76.01
2022-08-08T20:18:52.751Z,75.58
2022-08-08T20:21:23.277Z,74.73
2022-08-08T20:23:57.481Z,74.00
2022-08-08T20:26:27.636Z,73.39
2022-08-08T20:28:58.019Z,72.62
2022-08-08T20:31:46.906Z,72.29
2022-08-08T20:34:30.247Z,71.42
2022-08-08T20:37:03.249Z,71.47
2022-08-08T20:39:41.521Z,70.81
2022-08-08T20:42:29.063Z,71.03
2022-08-08T20:44:56.693Z,71.12
2022-08-08T20:47:24.044Z,70.80
2022-08-08T20:49:54.291Z,70.66
2022-08-08T20:52:23.225Z,70.22
2022-08-08T20:54:50.193Z,70.29
2022-08-08T20:57:19.054Z,70.31
2022-08-08T20:59:48.426Z,70.07
2022-08-08T21:02:19.667Z,70.65
2022-08-08T21:04:52.671Z,71.00
2022-08-08T21:07:47.726Z,71.55
2022-08-08T21:10:12.473Z,71.72
2022-08-08T21:12:41.471Z,71.92
2022-08-08T21:15:16.629Z,72.57
2022-08-08T21:17:59.965Z,73.57
2022-08-08T21:20:34.123Z,74.39
2022-08-08T21:23:02.735Z,74.63
2022-08-08T21:25:36.243Z,74.94
2022-08-08T21:28:09.453Z,75.08
2022-08-08T21:30:42.057Z,75.14
2022-08-08T21:33:11.664Z,75.36
2022-08-08T21:36:18.310Z,75.35
2022-08-08T21:38:26.745Z,75.92
2022-08-08T21:40:55.183Z,76.46
2022-08-08T21:43:24.586Z,76.58
2022-08-08T21:48:01.686Z,76.34
2022-08-08T21:48:44.353Z,75.96
2022-08-08T21:51:11.900Z,76.54
2022-08-08T21:54:32.490Z,76.28
2022-08-08T21:56:33.893Z,76.55
2022-08-08T21:59:04.085Z,75.77
2022-08-08T22:01:41.119Z,76.09
2022-08-08T22:04:12.326Z,75.27
2022-08-08T22:06:40.423Z,75.28
2022-08-08T22:09:09.081Z,74.75
2022-08-08T22:12:04.625Z,74.48
2022-08-08T22:14:26.765Z,74.39
2022-08-08T22:16:54.478Z,74.27
2022-08-08T22:19:23.717Z,74.55
2022-08-08T22:21:54.031Z,74.52
2022-08-08T22:24:28.062Z,74.68
2022-08-08T22:27:01.699Z,74.70
2022-08-08T22:29:58.903Z,74.71
2022-08-08T22:32:19.155Z,76.06
2022-08-08T22:34:51.137Z,75.76
2022-08-08T22:37:49.891Z,76.09
2022-08-08T22:40:07.689Z,75.73
2022-08-08T22:42:43.749Z,76.06
2022-08-08T22:45:14.704Z,77.19
2022-08-08T22:47:46.992Z,77.54
2022-08-08T22:50:27.394Z,77.16
2022-08-08T22:54:32.762Z,76.66
2022-08-08T22:55:59.007Z,77.36
2022-08-08T22:58:34.383Z,77.69
2022-08-08T23:01:26.619Z,77.06
2022-08-08T23:03:56.827Z,77.78
2022-08-08T23:06:27.076Z,77.08
2022-08-08T23:08:59.047Z,76.77
2022-08-08T23:12:17.318Z,76.82
2022-08-08T23:14:20.512Z,77.26
2022-08-08T23:16:57.940Z,77.19
2022-08-08T23:19:31.065Z,78.14
2022-08-08T23:22:04.526Z,79.00
2022-08-08T23:24:36.851Z,78.67
2022-08-08T23:27:10.222Z,79.44
2022-08-08T23:29:37.853Z,79.15
2022-08-08T23:32:05.533Z,78.76
2022-08-08T23:34:32.710Z,79.24
2022-08-08T23:37:02.637Z,79.30
2022-08-08T23:39:42.163Z,80.17
2022-08-08T23:42:16.784Z,80.31
2022-08-08T23:44:43.612Z,80.81
2022-08-08T23:49:08.549Z,80.63
2022-08-08T23:50:03.030Z,81.04
2022-08-08T23:52:32.512Z,81.51
2022-08-08T23:55:07.718Z,80.90
2022-08-08T23:57:52.879Z,81.01
